Racecast

Bode Klein

Fort Collins-CO (CO) · 12 · FRONT RANGECO D5A5A · Compare head to head

Athlete rating 130.0 2026 TF season
Best race 135.8 XC
Races 78
Seasons 6 2021 — 2026

RankedNation #1655·CO #84·CO D5A #55·FRONT RANGE #15·Team #8 ?

Rating scale ?
Speed rating — all races

Cross Country

XC speed rating

2025 XC 123.7

Fossil Ridge (CO) · Grade 12

Date Meet Event Result Place Rating Difficulty PR/SR Flags
2025-12-06 John Hunt Cross Country Park 5000m 16:39.2 220th · 4th on team 121.8 +0.000 ★CR CSR
2025-11-22 Toka Sticks Golf Course 5000m 16:36.9 61st · 4th on team 123.9 +0.009 CSR
2025-11-01 Norris Penrose Event Center 5000m 20:07.2 160th · 7th on team 107.3 +0.067 CSR
2025-10-10 Spring Canyon Park 5000m 16:09.8 6th · 2nd on team 129.4 +0.037 ★CR CSR RSR
2025-10-03 Northwest Open Space 5000m 16:26.8 6th · 2nd on team 128.1 +0.020 ★CR CSR RSR
2025-09-26 North Lake Park 5000m 17:04.3 4th · 2nd on team 124.7 +0.041 ★CR CSR
2025-09-19 Great Park 4828m 15:15.8 27th · 2nd on team 125.4 -0.024 ★PR ★CR SR CSR
2025-09-13 Heritage High School 5000m 16:05.6 69th · 3rd on team 126.9 -0.001 ★PR ★CR SR CSR
2025-08-30 Fort Collins High School 5000m 16:24 16th · 3rd on team 126.9 +0.023 PR ★CR SR CSR RSR
2025-08-23 Spring Canyon Park 5000m 17:02 9th · 4th on team 122.1 +0.037 CR SR CSR RSR

2024 XC 123.9

Fossil Ridge (CO) · Grade 11

Date Meet Event Result Place Rating Difficulty PR/SR Flags
2024-12-07 John Hunt Cross Country Park 5000m 16:51.9 244th · 6th on team 120.4 +0.000 CR CSR
2024-11-23 Toka Sticks Golf Course 5000m 16:30.2 43rd · 4th on team 125.5 +0.009 PR ★CR SR CSR
2024-11-02 Norris Penrose Event Center 5000m 17:05.6 92nd · 5th on team 126.7 +0.067 ★CR CSR RSR
2024-10-24 Spring Canyon Park 5000m 17:23 29th · 5th on team 122.5 +0.037 CR CSR
2024-10-04 Northwest Open Space 5000m 17:10.4 65th · 5th on team 122.2 +0.020 CR CSR
2024-09-21 Lyons Middle/High School 5000m 17:18.2 53rd · 5th on team 123.7 +0.046 ★CR CSR
2024-09-14 Heritage High School 5000m 16:34.6 104th · 6th on team 125.1 -0.001 PR CR SR CSR
2024-08-31 Fort Collins High School 5000m 16:54 26th · 5th on team 125.1 +0.023 PR CR SR CSR RSR

2023 XC 118.0

Unattached (TX) · Grade 10

Date Meet Event Result Place Rating Difficulty PR/SR Flags
2023-12-02 John Hunt Cross Country Park 5000m 17:23 66th · 66th on team 121.7 +0.000 CR CSR
2023-11-18 Coyote Run Golf Course at Leisure World 5000m 17:29.8 74th · 6th on team 120.6 +0.029 ★CR CSR
2023-10-28 Norris Penrose Event Center 5000m 17:08.5 91st · 3rd on team 125.9 +0.067 PR CR SR CSR RSR
2023-10-19 Fairgrounds Park 5000m 18:11 30th · 8th on team 118.8 +0.049 ★CR CSR RSR
2023-09-22 Clement Park 5000m 18:40.9 135th · 9th on team 113.5 +0.030 ★CR CSR
2023-09-09 Heritage High School 5000m 17:33.7 30th · 2nd on team 118.4 -0.001 SR CSR RSR
2023-09-03 Little America Golf Course 5000m 19:03.7 92nd · 8th on team 114.7 +0.065 ★CR CSR RSR
2023-08-26 Fort Collins High School 5000m 18:06 41st · 3rd on team 114.5 +0.023 CR SR CSR RSR
2023-08-19 Spring Canyon Park 5000m 19:03 45th · 9th on team 113.4 +0.037 CR SR CSR RSR

2022 XC 113.5

Fossil Ridge (CO) · Grade 9

Date Meet Event Result Place Rating Difficulty PR/SR Flags
2022-12-03 John Hunt Cross Country Park 5000m 18:48.5 264th · 7th on team 110.6 +0.000 CR CSR
2022-10-20 Margaret W. Carpenter Recreation Center 5000m 18:48 57th · 8th on team 112.6 +0.014 ★CR CSR
2022-09-17 Lyons Middle/High School 5000m 18:45.1 138th · 8th on team 115.8 +0.046 CR CSR
2022-09-10 Heritage High School 5000m 17:32.1 33rd · 2nd on team 114.8 -0.001 PR CR SR CSR
2022-09-02 Julia deKoevend Park 5000m 19:26.1 22nd · 2nd on team 112.7 +0.054 ★CR CSR
2022-08-27 Fort Collins High School 5000m 18:13 38th · 5th on team 116.8 +0.023 PR CR SR CSR RSR
2022-08-20 Spring Canyon Park 5000m 19:16 53rd · 10th on team 111.0 +0.037 PR CR SR CSR RSR

2021 XC 113.2

Kinard (CO) · Grade 8

Date Meet Event Result Place Rating Difficulty PR/SR Flags
2021-10-02 Spring Canyon Park 3218m 11:26.4 2nd · 1st on team 135.8 +0.019 ★PR ★CR ★R SR CSR RSR
2021-09-02 Lincoln Middle School 2414m 12:41 15th · 3rd on team 90.7 ★PR ★CR R SR CSR RSR

Track & Field

TF speed rating

2026 TF 127.6

Fort Collins-CO (CO) · Grade 12

Date Meet Event Result Place Rating Difficulty PR/SR Flags
2026-06-22 Nike Outdoor Nationals & USATF U20 Championships 1500m 4:12.44 77th · 1st on team 123.9 -0.035 ★PR SR
2026-06-22 Nike Outdoor Nationals & USATF U20 Championships 800m 1:57.08 76th · 2nd on team 128.7 -0.035
2026-06-22 Nike Outdoor Nationals & USATF U20 Championships 1mile 4:32.35 77th · 1st on team 124.4 -0.035 ★PR SR
2026-06-22 Nike Outdoor Nationals & USATF U20 Championships 1600m 4:30.51 76th · 1st on team 124.4 -0.035
2026-05-29 Denver Twilight Series: The Premier 800m 2:01.35 5th · 1st on team 126.6 -0.016
2026-05-29 Denver Twilight Series: The Premier 1600m 4:33.33 6th · 3rd on team 125.6 -0.016
2026-05-16 CHSAA State Championship 800m 1:55.79 13th · 1st on team 133.2 -0.011
2026-05-09 Teddy's Last Chance 800m 1:56.42 7th · 1st on team 132.1 -0.014
2026-05-08 Hoka St. Vrain Invitational 1600m 4:26.24 42nd · 1st on team 129.0 -0.015
2026-04-29 Longs Peak and Northern Conference Championships 1600m 4:25.69 2nd · 1st on team 129.4 -0.014
2026-04-29 Longs Peak and Northern Conference Championships 800m 2:01.24 13th · 3rd on team 126.9 -0.014
2026-04-23 Stutler Twilight 1600m 4:23.84 13th · 1st on team 130.3 -0.014 ★PR SR
2026-04-18 Randall Hess Roughrider Invitational 1600m 4:29.37 8th · 1st on team 127.6 -0.014
2026-04-10 The Pomona Invitational 800m 1:55.13 1st · 1st on team 134.0 -0.011 ★PR SR RSR
2026-04-10 Pomona Invite 800m 1:55.13 1st · 1st on team 134.0 -0.011
2026-04-08 Randy Yaussi PSD Meet 800m 2:01.38 1st · 1st on team 127.1 -0.012
2026-04-08 Randy Yaussi PSD Meet 1600m 4:33.72 1st · 1st on team 125.9 -0.012
2026-04-04 Altitude Running Invitational 3200m 9:55.69 2nd · 1st on team 125.5 -0.012 ★PR SR
2026-03-28 Niwot Invitational 800m 1:59.81 12th · 1st on team 128.4 -0.014
2026-03-28 Niwot Invitational 1600m 4:27.18 6th · 1st on team 128.7 -0.014 PR SR
2026-03-21 Runners Roost of Fort Collins Invitational 1600m 4:32.75 1st · 1st on team 126.4 -0.012 PR SR
2026-03-21 Runners Roost of Fort Collins Invitational 800m 2:05.86 8th · 2nd on team 122.6 -0.012
2026-03-07 John Martin Early Bird Invite 800m 1:58.84 2nd · 1st on team 129.9 -0.011 PR SR RSR
2026-02-14 Northern Colorado Pre-Season Classic 1600m 4:34.68 2nd · 2nd on team 125.6 -0.011 PR SR RSR
2026-02-14 Northern Colorado Pre-Season Classic 800m 2:07.89 7th · 6th on team 120.7 -0.011 PR SR

2025 TF 121.2

Fossil Ridge (CO) · Grade 11

Date Meet Event Result Place Rating Difficulty PR/SR Flags
2025-04-30 Northern Conference League Meet 3200m 10:08.28 10th · 4th on team 123.3 -0.008 RSR
2025-04-30 Northern Conference League Meet 1600m 4:40.43 17th · 4th on team 123.1 -0.008
2025-04-19 Randall Hess Roughrider Invitational 3200m 10:10.2 8th · 2nd on team 121.6 -0.014
2025-04-12 Pomona Invite Day #2 1600m 4:39.88 44th · 4th on team 123.2 -0.011 PR SR RSR
2025-04-05 Altitude Running Invite 3200m 10:05.86 17th · 4th on team 122.9 -0.012 PR SR RSR
2025-03-15 Murray Kula Invitational 1600m 4:48.6 7th · 1st on team 120.1 -0.008 PR SR
2025-01-30 Mines Indoor HS Meet Series #6 800m 2:09.68 8th · 3rd on team 120.9 -0.012 PR SR RSR
2025-01-30 Mines Indoor HS Meet Series #6 1mile 5:06.29 12th · 6th on team 114.7 -0.012 PR SR

2024 TF 114.6

Fossil Ridge (CO) · Grade 10

Date Meet Event Result Place Rating Difficulty PR/SR Flags
2024-04-19 Huskie Twilight 3200m 10:50.4 11th · 2nd on team 114.7 -0.003 PR SR
2024-04-04 Altitude Running Invitational 1600m 4:56.68 18th · 3rd on team 116.3 -0.009
2024-04-04 Altitude Running Invitational 800m 2:12.46 26th · 3rd on team 116.7 -0.009 PR SR
2024-03-23 Broomfield Shootout 1600m 4:53.41 54th · 3rd on team 117.0 -0.012 PR SR RSR
2024-03-23 Broomfield Shootout 800m 2:14.01 53rd · 2nd on team 114.8 -0.012 PR SR
2024-02-03 PEAK Pre-Season #1 1600m 5:19.56 11th · 7th on team 107.9 -0.009 PR SR RSR

2023 TF 107.3

Fossil Ridge (CO) · Grade 9

Date Meet Event Result Place Rating Difficulty PR/SR Flags
2023-03-31 Jack Christensen Invitational 1600m 5:23.99 9th · 2nd on team 107.3 -0.013 SR RSR

2022 TF 128.6

Kinard (CO) · Grade 8

Date Meet Event Result Place Rating Difficulty PR/SR Flags
2022-05-17 Wes Crist Middle School Championships 800m 2:26.3 7th · 1st on team 128.5 -0.009 PR SR RSR
2022-05-17 Wes Crist Middle School Championships 1600m 5:20.22 5th · 1st on team 128.7 -0.009 PR SR RSR